sensor_id;sensor_type;location;lat;lon;timestamp;temperature;humidity
18454;DHT22;9356;52.202;20.950;2022-11-12T00:01:17;11.40;99.90
18454;DHT22;9356;52.202;20.950;2022-11-12T00:02:38;11.40;99.90
18454;DHT22;9356;52.202;20.950;2022-11-12T00:04:02;11.50;99.90
18454;DHT22;9356;52.202;20.950;2022-11-12T00:05:23;11.50;99.90
18454;DHT22;9356;52.202;20.950;2022-11-12T00:06:50;11.50;99.90
18454;DHT22;9356;52.202;20.950;2022-11-12T00:08:13;11.50;99.90
18454;DHT22;9356;52.202;20.950;2022-11-12T00:09:34;11.30;99.90
18454;DHT22;9356;52.202;20.950;2022-11-12T00:10:59;11.50;99.90
18454;DHT22;9356;52.202;20.950;2022-11-12T00:12:22;11.50;99.90
18454;DHT22;9356;52.202;20.950;2022-11-12T00:13:42;11.50;99.90
18454;DHT22;9356;52.202;20.950;2022-11-12T00:15:05;11.50;99.90
18454;DHT22;9356;52.202;20.950;2022-11-12T00:16:26;11.50;99.90
18454;DHT22;9356;52.202;20.950;2022-11-12T00:17:53;12.60;99.90
18454;DHT22;9356;52.202;20.950;2022-11-12T00:19:16;11.60;99.90
18454;DHT22;9356;52.202;20.950;2022-11-12T00:20:37;11.50;99.90
18454;DHT22;9356;52.202;20.950;2022-11-12T00:21:59;11.60;99.90
18454;DHT22;9356;52.202;20.950;2022-11-12T00:23:21;11.50;99.90
18454;DHT22;9356;52.202;20.950;2022-11-12T00:24:42;11.50;99.90
18454;DHT22;9356;52.202;20.950;2022-11-12T00:26:04;11.10;99.90
18454;DHT22;9356;52.202;20.950;2022-11-12T00:27:26;11.60;99.90
18454;DHT22;9356;52.202;20.950;2022-11-12T00:28:47;11.60;99.90
18454;DHT22;9356;52.202;20.950;2022-11-12T00:30:10;11.60;99.90
18454;DHT22;9356;52.202;20.950;2022-11-12T00:31:31;11.60;99.90
18454;DHT22;9356;52.202;20.950;2022-11-12T00:32:54;11.60;99.90
18454;DHT22;9356;52.202;20.950;2022-11-12T00:34:17;11.60;99.90
18454;DHT22;9356;52.202;20.950;2022-11-12T00:35:39;11.60;99.90
18454;DHT22;9356;52.202;20.950;2022-11-12T00:37:02;11.70;99.90
18454;DHT22;9356;52.202;20.950;2022-11-12T00:38:23;11.70;99.90
18454;DHT22;9356;52.202;20.950;2022-11-12T00:39:52;11.60;99.90
18454;DHT22;9356;52.202;20.950;2022-11-12T00:41:17;11.60;99.90
18454;DHT22;9356;52.202;20.950;2022-11-12T00:42:39;11.60;99.90
18454;DHT22;9356;52.202;20.950;2022-11-12T00:44:00;11.60;99.90
18454;DHT22;9356;52.202;20.950;2022-11-12T00:45:23;11.80;99.90
18454;DHT22;9356;52.202;20.950;2022-11-12T00:46:46;10.70;99.90
18454;DHT22;9356;52.202;20.950;2022-11-12T00:48:08;11.60;99.90
18454;DHT22;9356;52.202;20.950;2022-11-12T00:49:31;11.70;99.90
18454;DHT22;9356;52.202;20.950;2022-11-12T00:50:59;11.70;99.90
18454;DHT22;9356;52.202;20.950;2022-11-12T00:52:21;11.70;99.90
18454;DHT22;9356;52.202;20.950;2022-11-12T00:53:43;11.70;99.90
18454;DHT22;9356;52.202;20.950;2022-11-12T00:55:07;11.70;99.90
18454;DHT22;9356;52.202;20.950;2022-11-12T00:56:28;11.70;99.90
18454;DHT22;9356;52.202;20.950;2022-11-12T00:57:57;11.60;99.90
18454;DHT22;9356;52.202;20.950;2022-11-12T00:59:19;11.60;99.90
18454;DHT22;9356;52.202;20.950;2022-11-12T01:00:41;11.60;99.90
18454;DHT22;9356;52.202;20.950;2022-11-12T01:02:03;11.60;99.90
18454;DHT22;9356;52.202;20.950;2022-11-12T01:03:27;11.60;99.90
18454;DHT22;9356;52.202;20.950;2022-11-12T01:04:54;11.60;99.90
18454;DHT22;9356;52.202;20.950;2022-11-12T01:06:23;11.60;99.90
18454;DHT22;9356;52.202;20.950;2022-11-12T01:07:48;11.60;99.90
18454;DHT22;9356;52.202;20.950;2022-11-12T01:09:20;11.60;99.90
18454;DHT22;9356;52.202;20.950;2022-11-12T01:10:45;11.60;99.90
18454;DHT22;9356;52.202;20.950;2022-11-12T01:12:07;11.60;99.90
18454;DHT22;9356;52.202;20.950;2022-11-12T01:13:28;11.60;99.90
18454;DHT22;9356;52.202;20.950;2022-11-12T01:14:56;11.60;99.90
18454;DHT22;9356;52.202;20.950;2022-11-12T01:16:21;11.60;99.90
18454;DHT22;9356;52.202;20.950;2022-11-12T01:17:43;11.60;99.90
18454;DHT22;9356;52.202;20.950;2022-11-12T01:19:07;11.70;99.90
18454;DHT22;9356;52.202;20.950;2022-11-12T01:20:31;11.50;99.90
18454;DHT22;9356;52.202;20.950;2022-11-12T01:21:57;11.60;99.90
18454;DHT22;9356;52.202;20.950;2022-11-12T01:23:23;11.70;99.90
18454;DHT22;9356;52.202;20.950;2022-11-12T01:24:44;11.70;99.90
18454;DHT22;9356;52.202;20.950;2022-11-12T01:26:08;11.70;99.90
18454;DHT22;9356;52.202;20.950;2022-11-12T01:27:29;11.60;99.90
18454;DHT22;9356;52.202;20.950;2022-11-12T01:28:52;11.60;99.90
18454;DHT22;9356;52.202;20.950;2022-11-12T01:30:13;11.60;99.90
18454;DHT22;9356;52.202;20.950;2022-11-12T01:31:37;11.60;99.90
18454;DHT22;9356;52.202;20.950;2022-11-12T01:32:59;11.70;99.90
18454;DHT22;9356;52.202;20.950;2022-11-12T01:34:19;11.60;99.90
18454;DHT22;9356;52.202;20.950;2022-11-12T01:35:43;11.50;99.90
18454;DHT22;9356;52.202;20.950;2022-11-12T01:37:04;11.50;99.90
18454;DHT22;9356;52.202;20.950;2022-11-12T01:38:26;10.80;99.90
18454;DHT22;9356;52.202;20.950;2022-11-12T01:39:48;11.60;99.90
18454;DHT22;9356;52.202;20.950;2022-11-12T01:41:17;11.60;99.90
18454;DHT22;9356;52.202;20.950;2022-11-12T01:42:38;11.50;99.90
18454;DHT22;9356;52.202;20.950;2022-11-12T01:44:12;11.60;99.90
18454;DHT22;9356;52.202;20.950;2022-11-12T01:45:35;11.60;99.90
18454;DHT22;9356;52.202;20.950;2022-11-12T01:47:05;11.60;99.90
18454;DHT22;9356;52.202;20.950;2022-11-12T01:48:35;11.90;99.90
18454;DHT22;9356;52.202;20.950;2022-11-12T01:50:06;11.50;99.90
18454;DHT22;9356;52.202;20.950;2022-11-12T01:51:40;12.30;99.90
18454;DHT22;9356;52.202;20.950;2022-11-12T01:53:11;11.50;99.90
18454;DHT22;9356;52.202;20.950;2022-11-12T01:54:34;11.50;99.90
18454;DHT22;9356;52.202;20.950;2022-11-12T01:55:58;11.50;99.90
18454;DHT22;9356;52.202;20.950;2022-11-12T01:57:26;11.60;99.90
18454;DHT22;9356;52.202;20.950;2022-11-12T01:58:59;11.50;99.90
18454;DHT22;9356;52.202;20.950;2022-11-12T02:00:21;11.50;99.90
18454;DHT22;9356;52.202;20.950;2022-11-12T02:01:44;11.60;99.90
18454;DHT22;9356;52.202;20.950;2022-11-12T02:03:10;11.60;99.90
18454;DHT22;9356;52.202;20.950;2022-11-12T02:04:36;11.60;99.90
18454;DHT22;9356;52.202;20.950;2022-11-12T02:06:03;11.50;99.90
18454;DHT22;9356;52.202;20.950;2022-11-12T02:07:29;11.60;99.90
18454;DHT22;9356;52.202;20.950;2022-11-12T02:08:52;12.70;99.90
18454;DHT22;9356;52.202;20.950;2022-11-12T02:10:16;11.50;99.90
18454;DHT22;9356;52.202;20.950;2022-11-12T02:11:39;11.50;99.90
18454;DHT22;9356;52.202;20.950;2022-11-12T02:13:01;11.60;99.90
18454;DHT22;9356;52.202;20.950;2022-11-12T02:14:40;11.60;99.90
18454;DHT22;9356;52.202;20.950;2022-11-12T02:16:04;11.60;99.90
18454;DHT22;9356;52.202;20.950;2022-11-12T02:17:25;11.50;99.90
18454;DHT22;9356;52.202;20.950;2022-11-12T02:18:47;12.20;99.90
18454;DHT22;9356;52.202;20.950;2022-11-12T02:20:09;11.50;99.90
18454;DHT22;9356;52.202;20.950;2022-11-12T02:21:34;11.50;99.90
18454;DHT22;9356;52.202;20.950;2022-11-12T02:22:55;11.50;99.90
18454;DHT22;9356;52.202;20.950;2022-11-12T02:24:34;11.50;99.90
18454;DHT22;9356;52.202;20.950;2022-11-12T02:25:58;11.50;99.90
18454;DHT22;9356;52.202;20.950;2022-11-12T02:27:26;11.50;99.90
18454;DHT22;9356;52.202;20.950;2022-11-12T02:28:49;11.60;99.90
18454;DHT22;9356;52.202;20.950;2022-11-12T02:30:10;13.00;99.90
18454;DHT22;9356;52.202;20.950;2022-11-12T02:31:33;11.50;99.90
18454;DHT22;9356;52.202;20.950;2022-11-12T02:33:00;11.50;99.90
18454;DHT22;9356;52.202;20.950;2022-11-12T02:34:21;11.50;99.90
18454;DHT22;9356;52.202;20.950;2022-11-12T02:35:43;11.40;99.90
18454;DHT22;9356;52.202;20.950;2022-11-12T02:37:06;11.40;99.90
18454;DHT22;9356;52.202;20.950;2022-11-12T02:38:29;11.50;99.90
18454;DHT22;9356;52.202;20.950;2022-11-12T02:39:50;11.40;99.90
18454;DHT22;9356;52.202;20.950;2022-11-12T02:41:12;12.30;99.90
18454;DHT22;9356;52.202;20.950;2022-11-12T02:42:33;11.40;99.90
18454;DHT22;9356;52.202;20.950;2022-11-12T02:43:55;11.50;99.90
18454;DHT22;9356;52.202;20.950;2022-11-12T02:45:22;11.50;99.90
18454;DHT22;9356;52.202;20.950;2022-11-12T02:46:44;11.60;99.90
18454;DHT22;9356;52.202;20.950;2022-11-12T02:48:05;11.50;99.90
18454;DHT22;9356;52.202;20.950;2022-11-12T02:49:28;11.50;99.90
18454;DHT22;9356;52.202;20.950;2022-11-12T02:50:50;11.50;99.90
18454;DHT22;9356;52.202;20.950;2022-11-12T02:52:13;11.50;99.90
18454;DHT22;9356;52.202;20.950;2022-11-12T02:53:35;11.50;99.90
18454;DHT22;9356;52.202;20.950;2022-11-12T02:55:02;11.50;99.90
18454;DHT22;9356;52.202;20.950;2022-11-12T02:56:31;11.50;99.90
18454;DHT22;9356;52.202;20.950;2022-11-12T02:57:56;11.50;99.90
18454;DHT22;9356;52.202;20.950;2022-11-12T02:59:17;11.50;99.90
18454;DHT22;9356;52.202;20.950;2022-11-12T03:00:40;11.50;99.90
18454;DHT22;9356;52.202;20.950;2022-11-12T03:02:01;11.60;99.90
18454;DHT22;9356;52.202;20.950;2022-11-12T03:03:23;11.50;99.90
18454;DHT22;9356;52.202;20.950;2022-11-12T03:04:45;11.50;99.90
18454;DHT22;9356;52.202;20.950;2022-11-12T03:06:09;11.50;99.90
18454;DHT22;9356;52.202;20.950;2022-11-12T03:07:32;11.50;99.90
18454;DHT22;9356;52.202;20.950;2022-11-12T03:08:54;11.40;99.90
18454;DHT22;9356;52.202;20.950;2022-11-12T03:10:16;11.40;99.90
18454;DHT22;9356;52.202;20.950;2022-11-12T03:11:38;11.50;99.90
18454;DHT22;9356;52.202;20.950;2022-11-12T03:13:05;11.50;99.90
18454;DHT22;9356;52.202;20.950;2022-11-12T03:14:27;11.40;99.90
18454;DHT22;9356;52.202;20.950;2022-11-12T03:15:49;11.50;99.90
18454;DHT22;9356;52.202;20.950;2022-11-12T03:17:11;11.40;99.90
18454;DHT22;9356;52.202;20.950;2022-11-12T03:18:33;11.50;99.90
18454;DHT22;9356;52.202;20.950;2022-11-12T03:19:58;11.40;99.90
18454;DHT22;9356;52.202;20.950;2022-11-12T03:21:24;11.30;99.90
18454;DHT22;9356;52.202;20.950;2022-11-12T03:22:56;11.30;99.90
18454;DHT22;9356;52.202;20.950;2022-11-12T03:24:22;11.30;99.90
18454;DHT22;9356;52.202;20.950;2022-11-12T03:25:48;11.30;99.90
18454;DHT22;9356;52.202;20.950;2022-11-12T03:27:10;12.00;99.90
18454;DHT22;9356;52.202;20.950;2022-11-12T03:28:32;11.30;99.90
18454;DHT22;9356;52.202;20.950;2022-11-12T03:29:54;11.40;99.90
18454;DHT22;9356;52.202;20.950;2022-11-12T03:31:25;11.40;99.90
18454;DHT22;9356;52.202;20.950;2022-11-12T03:32:47;11.40;99.90
18454;DHT22;9356;52.202;20.950;2022-11-12T03:34:09;11.40;99.90
18454;DHT22;9356;52.202;20.950;2022-11-12T03:35:32;11.30;99.90
18454;DHT22;9356;52.202;20.950;2022-11-12T03:36:53;11.30;99.90
18454;DHT22;9356;52.202;20.950;2022-11-12T03:38:18;11.30;99.90
18454;DHT22;9356;52.202;20.950;2022-11-12T03:39:39;11.30;99.90
18454;DHT22;9356;52.202;20.950;2022-11-12T03:41:01;11.30;99.90
18454;DHT22;9356;52.202;20.950;2022-11-12T03:42:23;11.30;99.90
18454;DHT22;9356;52.202;20.950;2022-11-12T03:43:44;11.20;99.90
18454;DHT22;9356;52.202;20.950;2022-11-12T03:45:07;11.20;99.90
18454;DHT22;9356;52.202;20.950;2022-11-12T03:46:28;11.20;99.90
18454;DHT22;9356;52.202;20.950;2022-11-12T03:47:51;11.20;99.90
18454;DHT22;9356;52.202;20.950;2022-11-12T03:49:12;11.20;99.90
18454;DHT22;9356;52.202;20.950;2022-11-12T03:50:34;11.20;99.90
18454;DHT22;9356;52.202;20.950;2022-11-12T03:51:59;11.20;99.90
18454;DHT22;9356;52.202;20.950;2022-11-12T03:53:22;11.10;99.90
18454;DHT22;9356;52.202;20.950;2022-11-12T03:54:44;11.10;99.90
18454;DHT22;9356;52.202;20.950;2022-11-12T03:56:06;11.00;99.90
18454;DHT22;9356;52.202;20.950;2022-11-12T03:57:28;11.00;99.90
18454;DHT22;9356;52.202;20.950;2022-11-12T03:58:49;10.90;99.90
18454;DHT22;9356;52.202;20.950;2022-11-12T04:00:12;10.90;99.90
18454;DHT22;9356;52.202;20.950;2022-11-12T04:01:33;10.90;99.90
18454;DHT22;9356;52.202;20.950;2022-11-12T04:02:56;10.90;99.90
18454;DHT22;9356;52.202;20.950;2022-11-12T04:04:18;11.00;99.90
18454;DHT22;9356;52.202;20.950;2022-11-12T04:05:39;11.00;99.90
18454;DHT22;9356;52.202;20.950;2022-11-12T04:07:19;11.10;99.90
18454;DHT22;9356;52.202;20.950;2022-11-12T04:08:59;10.50;99.90
18454;DHT22;9356;52.202;20.950;2022-11-12T04:10:21;11.10;99.90
18454;DHT22;9356;52.202;20.950;2022-11-12T04:12:07;11.20;99.90
18454;DHT22;9356;52.202;20.950;2022-11-12T04:13:44;11.20;99.90
18454;DHT22;9356;52.202;20.950;2022-11-12T04:15:08;11.20;99.90
18454;DHT22;9356;52.202;20.950;2022-11-12T04:16:29;11.20;99.90
18454;DHT22;9356;52.202;20.950;2022-11-12T04:18:08;11.20;99.90
18454;DHT22;9356;52.202;20.950;2022-11-12T04:19:48;11.20;99.90
18454;DHT22;9356;52.202;20.950;2022-11-12T04:21:31;11.20;99.90
18454;DHT22;9356;52.202;20.950;2022-11-12T04:23:19;11.20;99.90
18454;DHT22;9356;52.202;20.950;2022-11-12T04:24:42;11.20;99.90
18454;DHT22;9356;52.202;20.950;2022-11-12T04:26:26;10.90;99.90
18454;DHT22;9356;52.202;20.950;2022-11-12T04:27:47;11.20;99.90
18454;DHT22;9356;52.202;20.950;2022-11-12T04:29:09;11.20;99.90
18454;DHT22;9356;52.202;20.950;2022-11-12T04:30:50;11.20;99.90
18454;DHT22;9356;52.202;20.950;2022-11-12T04:32:11;11.20;99.90
18454;DHT22;9356;52.202;20.950;2022-11-12T04:33:37;11.10;99.90
18454;DHT22;9356;52.202;20.950;2022-11-12T04:34:59;11.10;99.90
18454;DHT22;9356;52.202;20.950;2022-11-12T04:36:21;11.00;99.90
18454;DHT22;9356;52.202;20.950;2022-11-12T04:37:43;11.00;99.90
18454;DHT22;9356;52.202;20.950;2022-11-12T04:39:05;11.00;99.90
18454;DHT22;9356;52.202;20.950;2022-11-12T04:40:31;11.10;99.90
18454;DHT22;9356;52.202;20.950;2022-11-12T04:42:11;11.10;99.90
18454;DHT22;9356;52.202;20.950;2022-11-12T04:43:50;11.10;99.90
18454;DHT22;9356;52.202;20.950;2022-11-12T04:45:30;11.10;99.90
18454;DHT22;9356;52.202;20.950;2022-11-12T04:46:52;11.20;99.90
18454;DHT22;9356;52.202;20.950;2022-11-12T04:48:14;11.20;99.90
18454;DHT22;9356;52.202;20.950;2022-11-12T04:49:36;11.10;99.90
18454;DHT22;9356;52.202;20.950;2022-11-12T04:50:58;11.00;99.90
18454;DHT22;9356;52.202;20.950;2022-11-12T04:52:21;10.90;99.90
18454;DHT22;9356;52.202;20.950;2022-11-12T04:53:42;10.80;99.90
18454;DHT22;9356;52.202;20.950;2022-11-12T04:55:04;10.90;99.90
18454;DHT22;9356;52.202;20.950;2022-11-12T04:56:27;10.80;99.90
18454;DHT22;9356;52.202;20.950;2022-11-12T04:57:49;10.80;99.90
18454;DHT22;9356;52.202;20.950;2022-11-12T04:59:18;11.80;99.90
18454;DHT22;9356;52.202;20.950;2022-11-12T05:00:39;10.70;99.90
18454;DHT22;9356;52.202;20.950;2022-11-12T05:02:05;10.70;99.90
18454;DHT22;9356;52.202;20.950;2022-11-12T05:03:31;10.70;99.90
18454;DHT22;9356;52.202;20.950;2022-11-12T05:04:52;10.50;99.90
18454;DHT22;9356;52.202;20.950;2022-11-12T05:06:14;10.60;99.90
18454;DHT22;9356;52.202;20.950;2022-11-12T05:07:50;10.50;99.90
18454;DHT22;9356;52.202;20.950;2022-11-12T05:09:13;10.10;99.90
18454;DHT22;9356;52.202;20.950;2022-11-12T05:10:34;10.60;99.90
18454;DHT22;9356;52.202;20.950;2022-11-12T05:11:58;10.50;99.90
18454;DHT22;9356;52.202;20.950;2022-11-12T05:13:19;10.40;99.90
18454;DHT22;9356;52.202;20.950;2022-11-12T05:14:46;10.30;99.90
18454;DHT22;9356;52.202;20.950;2022-11-12T05:16:08;10.40;99.90
18454;DHT22;9356;52.202;20.950;2022-11-12T05:17:28;10.50;99.90
18454;DHT22;9356;52.202;20.950;2022-11-12T05:18:50;10.40;99.90
18454;DHT22;9356;52.202;20.950;2022-11-12T05:20:16;10.40;99.90
18454;DHT22;9356;52.202;20.950;2022-11-12T05:21:39;10.40;99.90
18454;DHT22;9356;52.202;20.950;2022-11-12T05:23:18;10.50;99.90
18454;DHT22;9356;52.202;20.950;2022-11-12T05:24:42;10.40;99.90
18454;DHT22;9356;52.202;20.950;2022-11-12T05:26:04;10.30;99.90
18454;DHT22;9356;52.202;20.950;2022-11-12T05:27:28;10.30;99.90
18454;DHT22;9356;52.202;20.950;2022-11-12T05:28:50;10.10;99.90
18454;DHT22;9356;52.202;20.950;2022-11-12T05:30:12;10.00;99.90
18454;DHT22;9356;52.202;20.950;2022-11-12T05:31:38;10.00;99.90
18454;DHT22;9356;52.202;20.950;2022-11-12T05:33:04;9.90;99.90
18454;DHT22;9356;52.202;20.950;2022-11-12T05:34:26;9.90;99.90
18454;DHT22;9356;52.202;20.950;2022-11-12T05:35:47;10.00;99.90
18454;DHT22;9356;52.202;20.950;2022-11-12T05:37:11;10.00;99.90
18454;DHT22;9356;52.202;20.950;2022-11-12T05:38:33;10.10;99.90
18454;DHT22;9356;52.202;20.950;2022-11-12T05:39:58;10.00;99.90
18454;DHT22;9356;52.202;20.950;2022-11-12T05:41:24;10.10;99.90
18454;DHT22;9356;52.202;20.950;2022-11-12T05:43:11;10.10;99.90
18454;DHT22;9356;52.202;20.950;2022-11-12T05:44:33;10.00;99.90
18454;DHT22;9356;52.202;20.950;2022-11-12T05:45:55;10.00;99.90
18454;DHT22;9356;52.202;20.950;2022-11-12T05:47:17;10.00;99.90
18454;DHT22;9356;52.202;20.950;2022-11-12T05:48:38;10.00;99.90
18454;DHT22;9356;52.202;20.950;2022-11-12T05:49:59;10.00;99.90
18454;DHT22;9356;52.202;20.950;2022-11-12T05:51:21;10.10;99.90
18454;DHT22;9356;52.202;20.950;2022-11-12T05:52:42;10.20;99.90
18454;DHT22;9356;52.202;20.950;2022-11-12T05:54:05;10.20;99.90
18454;DHT22;9356;52.202;20.950;2022-11-12T05:55:27;10.20;99.90
18454;DHT22;9356;52.202;20.950;2022-11-12T05:56:55;10.20;99.90
18454;DHT22;9356;52.202;20.950;2022-11-12T05:58:19;10.30;99.90
18454;DHT22;9356;52.202;20.950;2022-11-12T05:59:40;10.30;99.90
18454;DHT22;9356;52.202;20.950;2022-11-12T06:01:06;10.30;99.90
18454;DHT22;9356;52.202;20.950;2022-11-12T06:02:27;10.20;99.90
18454;DHT22;9356;52.202;20.950;2022-11-12T06:03:50;10.30;99.90
18454;DHT22;9356;52.202;20.950;2022-11-12T06:05:15;10.20;99.90
18454;DHT22;9356;52.202;20.950;2022-11-12T06:06:37;10.20;99.90
18454;DHT22;9356;52.202;20.950;2022-11-12T06:08:06;11.30;99.90
18454;DHT22;9356;52.202;20.950;2022-11-12T06:09:35;10.10;99.90
18454;DHT22;9356;52.202;20.950;2022-11-12T06:11:02;10.00;99.90
18454;DHT22;9356;52.202;20.950;2022-11-12T06:12:23;10.00;99.90
18454;DHT22;9356;52.202;20.950;2022-11-12T06:13:46;10.00;99.90
18454;DHT22;9356;52.202;20.950;2022-11-12T06:15:07;9.90;99.90
18454;DHT22;9356;52.202;20.950;2022-11-12T06:16:35;9.80;99.90
18454;DHT22;9356;52.202;20.950;2022-11-12T06:17:57;9.90;99.90
18454;DHT22;9356;52.202;20.950;2022-11-12T06:19:18;9.90;99.90
18454;DHT22;9356;52.202;20.950;2022-11-12T06:20:40;9.90;99.90
18454;DHT22;9356;52.202;20.950;2022-11-12T06:22:01;9.90;99.90
18454;DHT22;9356;52.202;20.950;2022-11-12T06:23:23;10.00;99.90
18454;DHT22;9356;52.202;20.950;2022-11-12T06:24:44;9.90;99.90
18454;DHT22;9356;52.202;20.950;2022-11-12T06:26:06;9.90;99.90
18454;DHT22;9356;52.202;20.950;2022-11-12T06:27:29;9.90;99.90
18454;DHT22;9356;52.202;20.950;2022-11-12T06:28:53;10.00;99.90
18454;DHT22;9356;52.202;20.950;2022-11-12T06:30:15;9.90;99.90
18454;DHT22;9356;52.202;20.950;2022-11-12T06:31:38;9.90;99.90
18454;DHT22;9356;52.202;20.950;2022-11-12T06:33:00;9.90;99.90
18454;DHT22;9356;52.202;20.950;2022-11-12T06:34:20;9.90;99.90
18454;DHT22;9356;52.202;20.950;2022-11-12T06:35:43;9.90;99.90
18454;DHT22;9356;52.202;20.950;2022-11-12T06:37:04;10.00;99.90
18454;DHT22;9356;52.202;20.950;2022-11-12T06:38:26;9.90;99.90
18454;DHT22;9356;52.202;20.950;2022-11-12T06:39:48;8.60;99.90
18454;DHT22;9356;52.202;20.950;2022-11-12T06:41:11;9.80;99.90
18454;DHT22;9356;52.202;20.950;2022-11-12T06:42:34;9.80;99.90
18454;DHT22;9356;52.202;20.950;2022-11-12T06:43:57;9.70;99.90
18454;DHT22;9356;52.202;20.950;2022-11-12T06:45:18;9.70;99.90
18454;DHT22;9356;52.202;20.950;2022-11-12T06:46:40;9.80;99.90
18454;DHT22;9356;52.202;20.950;2022-11-12T06:48:02;9.80;99.90
18454;DHT22;9356;52.202;20.950;2022-11-12T06:49:28;8.50;99.90
18454;DHT22;9356;52.202;20.950;2022-11-12T06:50:50;9.60;99.90
18454;DHT22;9356;52.202;20.950;2022-11-12T06:52:11;9.30;99.90
18454;DHT22;9356;52.202;20.950;2022-11-12T06:53:36;9.50;99.90
18454;DHT22;9356;52.202;20.950;2022-11-12T06:54:58;9.60;99.90
18454;DHT22;9356;52.202;20.950;2022-11-12T06:56:23;9.50;99.90
18454;DHT22;9356;52.202;20.950;2022-11-12T06:57:50;9.80;99.90
18454;DHT22;9356;52.202;20.950;2022-11-12T06:59:12;9.30;99.90
18454;DHT22;9356;52.202;20.950;2022-11-12T07:00:34;9.40;99.90
18454;DHT22;9356;52.202;20.950;2022-11-12T07:01:55;9.40;99.90
18454;DHT22;9356;52.202;20.950;2022-11-12T07:03:17;9.20;99.90
18454;DHT22;9356;52.202;20.950;2022-11-12T07:04:39;9.40;99.90
18454;DHT22;9356;52.202;20.950;2022-11-12T07:06:07;8.40;99.90
18454;DHT22;9356;52.202;20.950;2022-11-12T07:07:28;9.50;99.90
18454;DHT22;9356;52.202;20.950;2022-11-12T07:08:50;9.50;99.90
18454;DHT22;9356;52.202;20.950;2022-11-12T07:10:12;9.50;99.90
18454;DHT22;9356;52.202;20.950;2022-11-12T07:11:34;10.50;99.90
18454;DHT22;9356;52.202;20.950;2022-11-12T07:12:56;9.50;99.90
18454;DHT22;9356;52.202;20.950;2022-11-12T07:14:18;9.60;99.90
18454;DHT22;9356;52.202;20.950;2022-11-12T07:15:40;9.60;99.90
18454;DHT22;9356;52.202;20.950;2022-11-12T07:17:02;9.60;99.90
18454;DHT22;9356;52.202;20.950;2022-11-12T07:18:25;9.70;99.90
18454;DHT22;9356;52.202;20.950;2022-11-12T07:19:48;9.70;99.90
18454;DHT22;9356;52.202;20.950;2022-11-12T07:21:12;9.70;99.90
18454;DHT22;9356;52.202;20.950;2022-11-12T07:22:39;9.70;99.90
18454;DHT22;9356;52.202;20.950;2022-11-12T07:24:00;9.80;99.90
18454;DHT22;9356;52.202;20.950;2022-11-12T07:25:27;9.80;99.90
18454;DHT22;9356;52.202;20.950;2022-11-12T07:26:53;9.50;99.90
18454;DHT22;9356;52.202;20.950;2022-11-12T07:28:24;9.90;99.90
18454;DHT22;9356;52.202;20.950;2022-11-12T07:29:51;9.90;99.90
18454;DHT22;9356;52.202;20.950;2022-11-12T07:31:14;9.80;99.90
18454;DHT22;9356;52.202;20.950;2022-11-12T07:32:37;9.80;99.90
18454;DHT22;9356;52.202;20.950;2022-11-12T07:34:05;9.80;99.90
18454;DHT22;9356;52.202;20.950;2022-11-12T07:35:27;9.80;99.90
18454;DHT22;9356;52.202;20.950;2022-11-12T07:36:49;9.70;99.90
18454;DHT22;9356;52.202;20.950;2022-11-12T07:38:11;9.70;99.90
18454;DHT22;9356;52.202;20.950;2022-11-12T07:39:34;9.80;99.90
18454;DHT22;9356;52.202;20.950;2022-11-12T07:40:59;9.70;99.90
18454;DHT22;9356;52.202;20.950;2022-11-12T07:42:21;9.70;99.90
18454;DHT22;9356;52.202;20.950;2022-11-12T07:43:46;9.70;99.90
18454;DHT22;9356;52.202;20.950;2022-11-12T07:45:11;9.80;99.90
18454;DHT22;9356;52.202;20.950;2022-11-12T07:46:33;9.80;99.90
18454;DHT22;9356;52.202;20.950;2022-11-12T07:47:58;9.80;99.90
18454;DHT22;9356;52.202;20.950;2022-11-12T07:49:20;9.90;99.90
18454;DHT22;9356;52.202;20.950;2022-11-12T07:50:42;9.90;99.90
18454;DHT22;9356;52.202;20.950;2022-11-12T07:52:04;9.90;99.90
18454;DHT22;9356;52.202;20.950;2022-11-12T07:53:27;9.90;99.90
18454;DHT22;9356;52.202;20.950;2022-11-12T07:54:49;9.90;99.90
18454;DHT22;9356;52.202;20.950;2022-11-12T07:56:14;9.90;99.90
18454;DHT22;9356;52.202;20.950;2022-11-12T07:57:38;9.80;99.90
18454;DHT22;9356;52.202;20.950;2022-11-12T07:59:00;9.80;99.90
18454;DHT22;9356;52.202;20.950;2022-11-12T08:00:25;9.70;99.90
18454;DHT22;9356;52.202;20.950;2022-11-12T08:01:47;9.80;99.90
18454;DHT22;9356;52.202;20.950;2022-11-12T08:03:09;9.80;99.90
18454;DHT22;9356;52.202;20.950;2022-11-12T08:04:32;11.30;99.90
18454;DHT22;9356;52.202;20.950;2022-11-12T08:05:54;9.90;99.90
18454;DHT22;9356;52.202;20.950;2022-11-12T08:07:17;9.90;99.90
18454;DHT22;9356;52.202;20.950;2022-11-12T08:08:39;9.90;99.90
18454;DHT22;9356;52.202;20.950;2022-11-12T08:10:00;10.00;99.90
18454;DHT22;9356;52.202;20.950;2022-11-12T08:11:22;10.00;99.90
18454;DHT22;9356;52.202;20.950;2022-11-12T08:12:43;8.80;99.90
18454;DHT22;9356;52.202;20.950;2022-11-12T08:14:05;9.90;99.90
18454;DHT22;9356;52.202;20.950;2022-11-12T08:15:29;10.00;99.90
18454;DHT22;9356;52.202;20.950;2022-11-12T08:16:51;10.10;99.90
18454;DHT22;9356;52.202;20.950;2022-11-12T08:18:13;10.00;99.90
18454;DHT22;9356;52.202;20.950;2022-11-12T08:19:35;10.00;99.90
18454;DHT22;9356;52.202;20.950;2022-11-12T08:21:02;10.00;99.90
18454;DHT22;9356;52.202;20.950;2022-11-12T08:22:24;9.90;99.90
18454;DHT22;9356;52.202;20.950;2022-11-12T08:23:46;10.00;99.90
18454;DHT22;9356;52.202;20.950;2022-11-12T08:25:08;10.00;99.90
18454;DHT22;9356;52.202;20.950;2022-11-12T08:26:30;8.70;99.90
18454;DHT22;9356;52.202;20.950;2022-11-12T08:27:55;10.00;99.90
18454;DHT22;9356;52.202;20.950;2022-11-12T08:29:16;10.10;99.90
18454;DHT22;9356;52.202;20.950;2022-11-12T08:30:44;10.20;99.90
18454;DHT22;9356;52.202;20.950;2022-11-12T08:32:06;10.10;99.90
18454;DHT22;9356;52.202;20.950;2022-11-12T08:33:29;10.10;99.90
18454;DHT22;9356;52.202;20.950;2022-11-12T08:34:50;10.10;99.90
18454;DHT22;9356;52.202;20.950;2022-11-12T08:36:14;10.10;99.90
18454;DHT22;9356;52.202;20.950;2022-11-12T08:37:37;10.00;99.90
18454;DHT22;9356;52.202;20.950;2022-11-12T08:38:59;10.00;99.90
18454;DHT22;9356;52.202;20.950;2022-11-12T08:40:21;11.00;99.90
18454;DHT22;9356;52.202;20.950;2022-11-12T08:41:43;9.90;99.90
18454;DHT22;9356;52.202;20.950;2022-11-12T08:43:06;10.00;99.90
18454;DHT22;9356;52.202;20.950;2022-11-12T08:44:28;9.80;99.90
18454;DHT22;9356;52.202;20.950;2022-11-12T08:45:52;9.90;99.90
18454;DHT22;9356;52.202;20.950;2022-11-12T08:47:14;9.90;99.90
18454;DHT22;9356;52.202;20.950;2022-11-12T08:48:36;9.90;99.90
18454;DHT22;9356;52.202;20.950;2022-11-12T08:49:59;10.00;99.90
18454;DHT22;9356;52.202;20.950;2022-11-12T08:51:20;10.00;99.90
18454;DHT22;9356;52.202;20.950;2022-11-12T08:52:44;10.00;99.90
18454;DHT22;9356;52.202;20.950;2022-11-12T08:54:04;10.10;99.90